Time;durP1;ratioP1;P1;durP2;ratioP2;P2;SDS_P1;SDS_P2;PMS_P1;PMS_P2;Temp;Humidity;BMP_temperature;BMP_pressure;BME280_temperature;BME280_humidity;BME280_pressure;Samples;Min_cycle;Max_cycle;Signal;HPM_P1;HPM_P2
2023/02/28 00:01:13;;;;;;;;;;;;;;;0.33;100.00;99611.25;5081723;28;19961;-60
2023/02/28 00:03:38;;;;;;;;;;;;;;;0.28;100.00;99606.03;5081253;28;19939;-60
2023/02/28 00:06:05;;;;;;;;;;;;;;;0.24;100.00;99608.38;5078283;28;20372;-60
2023/02/28 00:08:30;;;;;;;;;;;;;;;0.23;100.00;99599.09;5077545;28;19994;-60
2023/02/28 00:10:56;;;;;;;;;;;;;;;0.18;100.00;99605.59;5079272;28;20497;-60
2023/02/28 00:13:21;;;;;;;;;;;;;;;0.05;100.00;99606.81;5082454;28;20493;-60
2023/02/28 00:15:47;;;;;;;;;;;;;;;0.00;100.00;99611.66;5077362;28;19989;-61
2023/02/28 00:18:13;;;;;;;;;;;;;;;-0.02;100.00;99610.78;5076380;28;19979;-60
2023/02/28 00:20:39;;;;;;;;;;;;;;;-0.04;100.00;99609.84;5079299;28;19928;-60
2023/02/28 00:23:04;;;;;;;;;;;;;;;-0.09;100.00;99616.38;5081527;28;20358;-60
2023/02/28 00:25:30;;;;;;;;;;;;;;;-0.11;100.00;99615.44;5081045;28;19934;-60
2023/02/28 00:27:55;;;;;;;;;;;;;;;-0.08;100.00;99617.22;5077870;28;19957;-59
2023/02/28 00:30:21;;;;;;;;;;;;;;;-0.03;100.00;99606.53;5078803;28;19970;-60
2023/02/28 00:32:47;;;;;;;;;;;;;;;-0.03;100.00;99614.09;5078021;28;20032;-61
2023/02/28 00:35:13;;;;;;;;;;;;;;;-0.01;100.00;99611.63;5077378;28;20349;-61
2023/02/28 00:37:40;;;;;;;;;;;;;;;-0.03;100.00;99609.03;5079937;28;19934;-60
2023/02/28 00:40:06;;;;;;;;;;;;;;;-0.02;100.00;99614.94;5078162;28;20059;-57
2023/02/28 00:42:32;;;;;;;;;;;;;;;-0.03;100.00;99613.22;5078491;28;20481;-61
2023/02/28 00:44:58;;;;;;;;;;;;;;;-0.02;100.00;99613.28;5081560;28;19940;-60
2023/02/28 00:47:23;;;;;;;;;;;;;;;0.00;100.00;99609.16;5079625;28;20434;-60
2023/02/28 00:49:49;;;;;;;;;;;;;;;-0.02;100.00;99609.91;5080035;28;20249;-60
2023/02/28 00:52:14;;;;;;;;;;;;;;;-0.01;100.00;99606.59;5080586;28;20075;-60
2023/02/28 00:54:40;;;;;;;;;;;;;;;-0.03;100.00;99606.53;5071213;28;19971;-60
2023/02/28 00:57:06;;;;;;;;;;;;;;;-0.04;100.00;99612.34;5077281;28;20004;-61
2023/02/28 00:59:32;;;;;;;;;;;;;;;-0.03;100.00;99611.56;5093435;28;20060;-60
2023/02/28 01:01:57;;;;;;;;;;;;;;;-0.05;100.00;99613.19;5100892;28;19947;-61
2023/02/28 01:04:23;;;;;;;;;;;;;;;-0.02;100.00;99618.34;5085039;28;20430;-61
2023/02/28 01:06:48;;;;;;;;;;;;;;;-0.02;100.00;99614.94;5071261;28;20011;-60
2023/02/28 01:09:14;;;;;;;;;;;;;;;-0.03;100.00;99610.69;5085260;28;19996;-60
2023/02/28 01:11:43;;;;;;;;;;;;;;;-0.07;100.00;99622.31;5096339;28;19945;-61
2023/02/28 01:14:12;;;;;;;;;;;;;;;-0.07;100.00;99627.38;5080182;28;19948;-60
2023/02/28 01:16:37;;;;;;;;;;;;;;;-0.11;100.00;99625.53;5097276;28;19961;-61
2023/02/28 01:19:03;;;;;;;;;;;;;;;-0.17;100.00;99622.75;5098497;28;19952;-60
2023/02/28 01:21:29;;;;;;;;;;;;;;;-0.15;100.00;99632.91;5098895;28;20002;-60
2023/02/28 01:23:56;;;;;;;;;;;;;;;-0.17;100.00;99627.78;5096075;28;19958;-61
2023/02/28 01:26:22;;;;;;;;;;;;;;;-0.29;100.00;99626.47;5079649;28;19956;-60
2023/02/28 01:28:48;;;;;;;;;;;;;;;-0.30;100.00;99630.66;5098698;28;19955;-61
2023/02/28 01:31:14;;;;;;;;;;;;;;;-0.36;100.00;99637.09;5079654;28;20073;-61
2023/02/28 01:33:40;;;;;;;;;;;;;;;-0.42;100.00;99642.75;5099189;28;20030;-61
2023/02/28 01:36:08;;;;;;;;;;;;;;;-0.49;100.00;99639.13;5081399;28;19946;-60
2023/02/28 01:38:34;;;;;;;;;;;;;;;-0.53;100.00;99636.41;5075515;28;20349;-61
2023/02/28 01:41:00;;;;;;;;;;;;;;;-0.57;100.00;99642.13;5097948;28;20080;-61
2023/02/28 01:43:27;;;;;;;;;;;;;;;-0.62;100.00;99631.88;5096259;28;19993;-60
2023/02/28 01:45:54;;;;;;;;;;;;;;;-0.66;100.00;99639.22;5094564;28;19947;-60
2023/02/28 01:48:24;;;;;;;;;;;;;;;-0.66;100.00;99641.75;5084148;28;19940;-61
2023/02/28 01:50:49;;;;;;;;;;;;;;;-0.72;100.00;99634.78;5081044;28;20078;-60
2023/02/28 01:53:17;;;;;;;;;;;;;;;-0.76;100.00;99629.56;5096979;28;20424;-63
2023/02/28 01:55:46;;;;;;;;;;;;;;;-0.74;100.00;99630.50;5096913;28;19947;-61
2023/02/28 01:58:12;;;;;;;;;;;;;;;-0.74;100.00;99630.50;5099184;28;20038;-61
2023/02/28 02:00:39;;;;;;;;;;;;;;;-0.71;100.00;99630.63;5084662;28;20232;-61
2023/02/28 02:03:07;;;;;;;;;;;;;;;-0.75;100.00;99626.25;5080167;28;19983;-60
2023/02/28 02:05:36;;;;;;;;;;;;;;;-0.77;100.00;99628.72;5098395;27;19939;-61
2023/02/28 02:08:03;;;;;;;;;;;;;;;-0.80;100.00;99626.06;5087968;27;20495;-61
2023/02/28 02:10:40;;;;;;;;;;;;;;;-0.79;100.00;99624.41;5100890;27;20303;-61
2023/02/28 02:13:06;;;;;;;;;;;;;;;-0.82;100.00;99622.63;5101239;27;19946;-60
2023/02/28 02:15:36;;;;;;;;;;;;;;;-0.81;100.00;99623.50;5103136;27;19937;-61
2023/02/28 02:18:09;;;;;;;;;;;;;;;-0.87;100.00;99625.75;5100693;27;19951;-60
2023/02/28 02:20:38;;;;;;;;;;;;;;;-0.89;100.00;99625.66;5105192;27;20050;-60
2023/02/28 02:23:10;;;;;;;;;;;;;;;-0.95;100.00;99626.28;5099449;27;19942;-60
2023/02/28 02:25:55;;;;;;;;;;;;;;;-1.00;100.00;99626.88;5098327;27;19989;-60
2023/02/28 02:28:32;;;;;;;;;;;;;;;-1.09;100.00;99623.97;5081112;27;19948;-60
2023/02/28 02:30:58;;;;;;;;;;;;;;;-1.11;100.00;99623.94;5102696;27;20163;-60
2023/02/28 02:33:23;;;;;;;;;;;;;;;-1.16;100.00;99625.38;5087924;27;19945;-61
2023/02/28 02:35:59;;;;;;;;;;;;;;;-1.21;100.00;99634.38;5099534;27;20458;-60
2023/02/28 02:38:31;;;;;;;;;;;;;;;-1.30;100.00;99625.56;5099872;27;20437;-61
2023/02/28 02:41:04;;;;;;;;;;;;;;;-1.40;100.00;99629.34;5087810;27;19979;-61
2023/02/28 02:43:36;;;;;;;;;;;;;;;-1.49;100.00;99631.47;5099698;27;20030;-61
2023/02/28 02:46:05;;;;;;;;;;;;;;;-1.62;100.00;99622.50;5098268;27;20210;-61
2023/02/28 02:48:34;;;;;;;;;;;;;;;-1.72;100.00;99617.00;5098275;27;21128;-60
2023/02/28 02:51:11;;;;;;;;;;;;;;;-1.81;100.00;99614.91;5101238;27;19944;-60
2023/02/28 02:53:42;;;;;;;;;;;;;;;-1.88;100.00;99611.28;5088658;27;20062;-59
2023/02/28 02:56:09;;;;;;;;;;;;;;;-1.90;100.00;99611.97;5099598;27;19943;-60
2023/02/28 02:58:41;;;;;;;;;;;;;;;-1.91;100.00;99612.81;5076590;28;20424;-60
2023/02/28 03:01:09;;;;;;;;;;;;;;;-1.96;100.00;99617.63;5082822;28;20026;-58
2023/02/28 03:03:35;;;;;;;;;;;;;;;-2.03;100.00;99615.59;5078366;28;19977;-59
2023/02/28 03:06:02;;;;;;;;;;;;;;;-2.11;100.00;99624.41;5076120;28;19948;-59
2023/02/28 03:08:28;;;;;;;;;;;;;;;-2.17;100.00;99621.63;5079712;28;20446;-60
2023/02/28 03:10:57;;;;;;;;;;;;;;;-2.20;100.00;99618.97;5069747;28;19931;-58
2023/02/28 03:13:37;;;;;;;;;;;;;;;-2.29;100.00;99621.03;5079499;28;20671;-57
2023/02/28 03:16:07;;;;;;;;;;;;;;;-2.34;100.00;99620.84;5084719;28;20515;-57
2023/02/28 03:18:48;;;;;;;;;;;;;;;-2.40;100.00;99624.69;5081136;28;20448;-59
2023/02/28 03:21:32;;;;;;;;;;;;;;;-2.49;100.00;99625.13;5081527;28;19944;-56
2023/02/28 03:24:07;;;;;;;;;;;;;;;-2.55;100.00;99624.84;5081851;28;20010;-56
2023/02/28 03:26:36;;;;;;;;;;;;;;;-2.57;100.00;99620.53;5075438;28;19948;-56
2023/02/28 03:29:12;;;;;;;;;;;;;;;-2.61;100.00;99627.03;5078763;28;19954;-55
2023/02/28 03:31:41;;;;;;;;;;;;;;;-2.66;100.00;99630.97;5080135;28;19950;-58
2023/02/28 03:34:16;;;;;;;;;;;;;;;-2.63;100.00;99625.25;5077912;28;19963;-58
2023/02/28 03:36:47;;;;;;;;;;;;;;;-2.60;100.00;99625.41;5076928;28;19950;-55
2023/02/28 03:39:19;;;;;;;;;;;;;;;-2.57;100.00;99626.41;5075850;28;20338;-57
2023/02/28 03:41:52;;;;;;;;;;;;;;;-2.56;100.00;99622.25;5081393;28;19982;-59
2023/02/28 03:44:23;;;;;;;;;;;;;;;-2.54;100.00;99628.19;5082595;28;19938;-57
2023/02/28 03:46:53;;;;;;;;;;;;;;;-2.52;100.00;99619.09;5078471;28;19981;-58
2023/02/28 03:49:36;;;;;;;;;;;;;;;-2.53;100.00;99627.41;5075201;28;19948;-58
2023/02/28 03:52:05;;;;;;;;;;;;;;;-2.58;100.00;99623.81;5080720;28;20922;-57
2023/02/28 03:54:32;;;;;;;;;;;;;;;-2.57;100.00;99626.41;5080888;28;20403;-57
2023/02/28 03:57:02;;;;;;;;;;;;;;;-2.61;100.00;99631.19;5079137;28;20462;-57
2023/02/28 03:59:37;;;;;;;;;;;;;;;-2.67;100.00;99628.41;5093668;27;19964;-55
2023/02/28 04:02:02;;;;;;;;;;;;;;;-2.69;100.00;99633.34;5100265;27;20488;-58
2023/02/28 04:04:28;;;;;;;;;;;;;;;-2.72;100.00;99629.81;5100123;27;19952;-56
2023/02/28 04:07:01;;;;;;;;;;;;;;;-2.72;100.00;99627.31;5098935;27;20319;-56
2023/02/28 04:09:27;;;;;;;;;;;;;;;-2.77;100.00;99625.44;5099000;27;19981;-56
2023/02/28 04:11:55;;;;;;;;;;;;;;;-2.80;100.00;99631.97;5099971;27;20382;-56
2023/02/28 04:14:20;;;;;;;;;;;;;;;-2.83;100.00;99634.28;5098585;27;19948;-58
2023/02/28 04:16:46;;;;;;;;;;;;;;;-2.45;100.00;99632.00;5100169;27;20283;-59
2023/02/28 04:19:12;;;;;;;;;;;;;;;-2.47;100.00;99631.09;5099372;27;19968;-59
2023/02/28 04:21:42;;;;;;;;;;;;;;;-2.52;100.00;99635.03;5100190;27;20411;-60
2023/02/28 04:24:13;;;;;;;;;;;;;;;-2.61;100.00;99632.06;5098664;27;19931;-58
2023/02/28 04:26:39;;;;;;;;;;;;;;;-2.68;100.00;99629.19;5077946;27;20325;-58
2023/02/28 04:29:05;;;;;;;;;;;;;;;-2.45;100.00;99643.69;5100422;27;19957;-57
2023/02/28 04:31:31;;;;;;;;;;;;;;;-2.48;100.00;99644.44;5099786;27;20023;-58
2023/02/28 04:33:56;;;;;;;;;;;;;;;-2.54;100.00;99640.75;5098964;27;19959;-58
2023/02/28 04:36:23;;;;;;;;;;;;;;;-2.69;100.00;99635.84;5097660;27;20397;-62
2023/02/28 04:38:48;;;;;;;;;;;;;;;-2.77;100.00;99634.63;5097480;27;19956;-58
2023/02/28 04:41:14;;;;;;;;;;;;;;;-2.70;100.00;99636.63;5099044;27;20313;-60
2023/02/28 04:43:40;;;;;;;;;;;;;;;-2.79;100.00;99644.56;5084830;27;19955;-59
2023/02/28 04:46:05;;;;;;;;;;;;;;;-2.71;100.00;99634.91;5098062;27;20043;-60
2023/02/28 04:48:33;;;;;;;;;;;;;;;-2.78;100.00;99638.78;5097413;27;19974;-61
2023/02/28 04:51:05;;;;;;;;;;;;;;;-2.54;100.00;99646.63;5097362;27;20221;-58
2023/02/28 04:53:31;;;;;;;;;;;;;;;-2.51;100.00;99645.94;5095964;28;19952;-58
2023/02/28 04:55:57;;;;;;;;;;;;;;;-2.54;100.00;99645.75;5082819;28;19943;-59
2023/02/28 04:58:23;;;;;;;;;;;;;;;-2.68;100.00;99644.25;5097610;27;20481;-56
2023/02/28 05:00:52;;;;;;;;;;;;;;;-2.83;100.00;99642.69;5100485;27;19994;-55
2023/02/28 05:03:18;;;;;;;;;;;;;;;-2.93;100.00;99640.50;5097748;28;19997;-57
2023/02/28 05:05:44;;;;;;;;;;;;;;;-3.02;100.00;99642.56;5100011;28;19941;-58
2023/02/28 05:08:10;;;;;;;;;;;;;;;-3.12;100.00;99642.88;5096820;28;20043;-55
2023/02/28 05:10:36;;;;;;;;;;;;;;;-3.19;100.00;99642.50;5099194;28;20334;-56
2023/02/28 05:13:01;;;;;;;;;;;;;;;-3.27;100.00;99637.94;5097820;28;20386;-57
2023/02/28 05:15:27;;;;;;;;;;;;;;;-3.24;100.00;99638.09;5083492;28;20000;-59
2023/02/28 05:17:53;;;;;;;;;;;;;;;-3.17;100.00;99641.78;5094073;28;19951;-59
2023/02/28 05:20:18;;;;;;;;;;;;;;;-3.14;100.00;99638.59;5100562;28;20487;-58
2023/02/28 05:22:44;;;;;;;;;;;;;;;-3.14;100.00;99644.44;5096714;28;19951;-60
2023/02/28 05:25:12;;;;;;;;;;;;;;;-3.14;100.00;99638.59;5096925;28;19991;-60
2023/02/28 05:27:38;;;;;;;;;;;;;;;-3.20;100.00;99641.63;5099277;28;19939;-58
2023/02/28 05:30:05;;;;;;;;;;;;;;;-3.27;100.00;99634.59;5103836;28;19952;-59
2023/02/28 05:32:31;;;;;;;;;;;;;;;-3.29;100.00;99634.50;5097854;28;20116;-58
2023/02/28 05:34:56;;;;;;;;;;;;;;;-3.29;100.00;99646.16;5096710;28;19969;-60
2023/02/28 05:37:25;;;;;;;;;;;;;;;-3.32;100.00;99649.38;5083818;28;20261;-59
2023/02/28 05:39:51;;;;;;;;;;;;;;;-3.33;100.00;99647.66;5097986;27;19964;-60
2023/02/28 05:42:16;;;;;;;;;;;;;;;-3.34;100.00;99652.56;5086402;27;20613;-61
2023/02/28 05:44:42;;;;;;;;;;;;;;;-3.34;100.00;99657.59;5073770;27;19945;-60
2023/02/28 05:47:07;;;;;;;;;;;;;;;-3.35;100.00;99654.22;5104845;27;20072;-61
2023/02/28 05:49:33;;;;;;;;;;;;;;;-3.38;100.00;99651.56;5100548;27;19942;-64
2023/02/28 05:51:58;;;;;;;;;;;;;;;-3.36;100.00;99662.56;5103035;27;19948;-61
2023/02/28 05:54:24;;;;;;;;;;;;;;;-3.38;100.00;99660.72;5101971;27;19938;-61
2023/02/28 05:56:49;;;;;;;;;;;;;;;-3.37;100.00;99662.47;5104156;27;20059;-61
2023/02/28 05:59:15;;;;;;;;;;;;;;;-3.33;100.00;99666.84;5103052;27;19963;-61
2023/02/28 06:01:47;;;;;;;;;;;;;;;-3.25;100.00;99668.09;5100859;27;20459;-61
2023/02/28 06:04:17;;;;;;;;;;;;;;;-3.15;100.00;99666.94;5087061;27;20496;-61
2023/02/28 06:06:52;;;;;;;;;;;;;;;-3.08;100.00;99672.34;5089706;27;19936;-60
2023/02/28 06:09:17;;;;;;;;;;;;;;;-2.91;100.00;99675.69;5100666;27;20008;-60
2023/02/28 06:11:43;;;;;;;;;;;;;;;-2.81;100.00;99680.41;5098933;27;20714;-59
2023/02/28 06:14:16;;;;;;;;;;;;;;;-2.69;100.00;99680.16;5097519;27;19962;-60
2023/02/28 06:16:42;;;;;;;;;;;;;;;-2.61;100.00;99676.38;5101696;27;20048;-60
2023/02/28 06:19:08;;;;;;;;;;;;;;;-2.58;100.00;99684.03;5100162;27;20498;-60
2023/02/28 06:21:33;;;;;;;;;;;;;;;-2.47;100.00;99688.81;5099146;27;20506;-60
2023/02/28 06:23:59;;;;;;;;;;;;;;;-2.37;100.00;99687.59;5099940;27;19982;-60
2023/02/28 06:26:25;;;;;;;;;;;;;;;-2.23;100.00;99689.16;5101089;27;20413;-59
2023/02/28 06:28:51;;;;;;;;;;;;;;;-2.15;100.00;99687.00;5100805;27;19950;-59
2023/02/28 06:31:17;;;;;;;;;;;;;;;-2.09;100.00;99688.16;5102863;27;19941;-60
2023/02/28 06:33:43;;;;;;;;;;;;;;;-1.96;100.00;99680.41;5099928;27;19955;-60
2023/02/28 06:36:09;;;;;;;;;;;;;;;-1.85;100.00;99691.81;5100886;27;19940;-62
2023/02/28 06:38:35;;;;;;;;;;;;;;;-1.76;100.00;99688.00;5103640;27;20785;-60
2023/02/28 06:41:01;;;;;;;;;;;;;;;-1.63;100.00;99688.66;5098698;27;20037;-61
2023/02/28 06:43:31;;;;;;;;;;;;;;;-1.59;100.00;99688.00;5103184;27;20384;-60
2023/02/28 06:45:57;;;;;;;;;;;;;;;-1.45;100.00;99692.00;5101849;27;20024;-61
2023/02/28 06:48:23;;;;;;;;;;;;;;;-1.31;100.00;99695.13;5097508;27;20399;-61
2023/02/28 06:50:49;;;;;;;;;;;;;;;-1.25;100.00;99694.53;5100371;27;19944;-60
2023/02/28 06:53:15;;;;;;;;;;;;;;;-1.23;100.00;99695.50;5088999;27;19996;-61
2023/02/28 06:55:41;;;;;;;;;;;;;;;-1.22;100.00;99690.50;5102853;27;19945;-60
2023/02/28 06:58:15;;;;;;;;;;;;;;;-1.15;100.00;99699.19;5098410;27;20466;-59
2023/02/28 07:00:42;;;;;;;;;;;;;;;-1.10;100.00;99692.69;5101635;27;20015;-60
2023/02/28 07:03:07;;;;;;;;;;;;;;;-1.12;100.00;99701.84;5101958;27;19957;-62
2023/02/28 07:05:37;;;;;;;;;;;;;;;-1.10;100.00;99705.28;5100548;27;19945;-58
2023/02/28 07:08:03;;;;;;;;;;;;;;;-1.00;100.00;99698.22;5099463;27;20432;-60
2023/02/28 07:10:29;;;;;;;;;;;;;;;-0.89;100.00;99697.81;5101389;27;19941;-60
2023/02/28 07:12:54;;;;;;;;;;;;;;;-0.81;100.00;99701.53;5096809;27;20003;-60
2023/02/28 07:15:20;;;;;;;;;;;;;;;-0.71;100.00;99701.09;5099373;27;19942;-60
2023/02/28 07:17:45;;;;;;;;;;;;;;;-0.62;100.00;99699.84;5098901;27;20401;-61
2023/02/28 07:20:11;;;;;;;;;;;;;;;-0.39;100.00;99699.94;5096578;27;20378;-61
2023/02/28 07:22:36;;;;;;;;;;;;;;;-0.27;100.00;99703.84;5100522;27;20376;-59
2023/02/28 07:25:02;;;;;;;;;;;;;;;-0.13;100.00;99709.44;5102046;27;19948;-60
2023/02/28 07:27:28;;;;;;;;;;;;;;;0.11;100.00;99704.50;5097809;27;20006;-62
2023/02/28 07:29:54;;;;;;;;;;;;;;;0.30;100.00;99700.22;5095242;27;20662;-62
2023/02/28 07:32:20;;;;;;;;;;;;;;;0.51;100.00;99691.78;5103481;27;19973;-60
2023/02/28 07:34:45;;;;;;;;;;;;;;;0.62;100.00;99696.41;5100420;27;19943;-60
2023/02/28 07:37:11;;;;;;;;;;;;;;;0.53;100.00;99697.72;5096462;27;20336;-61
2023/02/28 07:39:36;;;;;;;;;;;;;;;0.63;100.00;99702.31;5098050;27;20420;-60
2023/02/28 07:42:06;;;;;;;;;;;;;;;0.77;100.00;99702.03;5100815;27;19949;-60
2023/02/28 07:44:32;;;;;;;;;;;;;;;0.84;100.00;99708.16;5098100;27;20084;-59
2023/02/28 07:46:57;;;;;;;;;;;;;;;0.91;100.00;99702.53;5097786;27;19951;-59
2023/02/28 07:49:23;;;;;;;;;;;;;;;1.02;100.00;99702.94;5097277;27;19949;-60
2023/02/28 07:51:48;;;;;;;;;;;;;;;1.00;100.00;99707.06;5097922;27;20358;-60
2023/02/28 07:54:14;;;;;;;;;;;;;;;0.93;100.00;99700.94;5097829;27;19946;-59
2023/02/28 07:56:39;;;;;;;;;;;;;;;0.93;100.00;99705.97;5100544;27;20068;-62
2023/02/28 07:59:04;;;;;;;;;;;;;;;0.66;100.00;99705.81;5103117;27;20127;-61
2023/02/28 08:01:30;;;;;;;;;;;;;;;0.70;100.00;99709.31;5100782;27;20005;-61
2023/02/28 08:03:56;;;;;;;;;;;;;;;0.71;100.00;99706.84;5096945;27;20022;-61
2023/02/28 08:06:23;;;;;;;;;;;;;;;0.81;100.00;99713.09;5099824;27;19947;-61
2023/02/28 08:08:49;;;;;;;;;;;;;;;0.83;100.00;99707.31;5099443;27;19949;-61
2023/02/28 08:11:15;;;;;;;;;;;;;;;1.04;100.00;99716.44;5085575;27;19972;-61
2023/02/28 08:13:43;;;;;;;;;;;;;;;1.18;100.00;99712.75;5097565;27;20043;-61
2023/02/28 08:16:09;;;;;;;;;;;;;;;0.95;100.00;99716.13;5082119;27;20444;-60
2023/02/28 08:18:34;;;;;;;;;;;;;;;1.11;100.00;99713.34;5098531;27;19948;-60
2023/02/28 08:21:05;;;;;;;;;;;;;;;1.27;100.00;99713.94;5099079;27;20320;-60
2023/02/28 08:23:33;;;;;;;;;;;;;;;1.49;100.00;99722.25;5099907;27;20029;-60
2023/02/28 08:25:58;;;;;;;;;;;;;;;1.54;100.00;99720.75;5100317;27;19941;-61
2023/02/28 08:28:24;;;;;;;;;;;;;;;1.54;100.00;99718.22;5100036;27;19958;-61
2023/02/28 08:30:49;;;;;;;;;;;;;;;1.59;100.00;99717.56;5083825;27;19944;-61
2023/02/28 08:33:15;;;;;;;;;;;;;;;1.30;100.00;99716.59;5095450;27;19948;-60
2023/02/28 08:35:40;;;;;;;;;;;;;;;1.45;100.00;99720.41;5097236;27;20547;-60
2023/02/28 08:38:06;;;;;;;;;;;;;;;1.40;100.00;99722.78;5099946;27;19952;-59
2023/02/28 08:40:31;;;;;;;;;;;;;;;1.38;100.00;99721.91;5099829;27;20367;-60
2023/02/28 08:42:57;;;;;;;;;;;;;;;1.61;100.00;99715.13;5077224;27;20407;-60
2023/02/28 08:45:23;;;;;;;;;;;;;;;1.72;100.00;99722.25;5098292;27;19941;-60
2023/02/28 08:47:48;;;;;;;;;;;;;;;1.83;100.00;99723.44;5098345;27;20494;-60
2023/02/28 08:50:14;;;;;;;;;;;;;;;2.07;100.00;99717.47;5093757;27;19945;-62
2023/02/28 08:52:42;;;;;;;;;;;;;;;2.15;100.00;99713.53;5083189;28;19940;-59
2023/02/28 08:55:07;;;;;;;;;;;;;;;2.40;100.00;99710.06;5100993;27;19985;-60
2023/02/28 08:57:33;;;;;;;;;;;;;;;2.50;100.00;99707.03;5099503;27;20073;-60
2023/02/28 08:59:58;;;;;;;;;;;;;;;2.52;100.00;99703.72;5099665;28;19981;-59
2023/02/28 09:02:24;;;;;;;;;;;;;;;3.28;100.00;99699.97;5094891;27;20057;-60
2023/02/28 09:04:49;;;;;;;;;;;;;;;4.13;100.00;99716.56;5097102;28;20397;-60
2023/02/28 09:07:14;;;;;;;;;;;;;;;4.47;100.00;99702.09;5098559;28;19947;-60
2023/02/28 09:09:53;;;;;;;;;;;;;;;4.78;100.00;99713.78;5093694;28;20046;-61
2023/02/28 09:12:19;;;;;;;;;;;;;;;4.66;100.00;99705.91;5097840;28;19997;-60
2023/02/28 09:14:45;;;;;;;;;;;;;;;4.70;100.00;99700.94;5083102;27;20401;-61
2023/02/28 09:17:10;;;;;;;;;;;;;;;5.27;100.00;99698.69;5089098;27;19938;-60
2023/02/28 09:19:36;;;;;;;;;;;;;;;5.04;100.00;99703.34;5097939;27;20774;-61
2023/02/28 09:22:02;;;;;;;;;;;;;;;5.31;98.90;99697.94;5100119;27;20475;-60
2023/02/28 09:24:27;;;;;;;;;;;;;;;5.25;99.90;99702.06;5104613;27;20354;-61
2023/02/28 09:26:53;;;;;;;;;;;;;;;5.60;98.40;99695.91;5105086;27;20290;-59
2023/02/28 09:29:18;;;;;;;;;;;;;;;6.06;98.18;99701.84;5102158;27;19934;-59
2023/02/28 09:31:44;;;;;;;;;;;;;;;6.08;91.58;99698.47;5102620;27;20049;-61
2023/02/28 09:34:10;;;;;;;;;;;;;;;5.92;91.86;99699.91;5100585;27;19924;-61
2023/02/28 09:36:37;;;;;;;;;;;;;;;5.48;92.65;99700.78;5098507;27;19923;-60
2023/02/28 09:39:03;;;;;;;;;;;;;;;5.66;93.98;99698.56;5100387;27;20552;-60
2023/02/28 09:41:35;;;;;;;;;;;;;;;6.01;96.14;99701.75;5101109;27;19948;-61
2023/02/28 09:44:02;;;;;;;;;;;;;;;5.64;92.68;99707.88;5083419;27;20054;-60
2023/02/28 09:46:34;;;;;;;;;;;;;;;5.86;97.04;99698.91;5099386;27;19935;-60
2023/02/28 09:49:19;;;;;;;;;;;;;;;6.21;94.33;99704.63;5098812;27;19985;-62
2023/02/28 09:51:54;;;;;;;;;;;;;;;6.66;91.53;99707.81;5097530;27;19961;-62
2023/02/28 09:54:22;;;;;;;;;;;;;;;6.12;90.19;99702.78;5096894;27;19943;-59
2023/02/28 09:56:51;;;;;;;;;;;;;;;5.54;90.38;99706.00;5101379;27;19940;-60
2023/02/28 09:59:17;;;;;;;;;;;;;;;5.65;97.47;99708.72;5101784;27;19928;-61
2023/02/28 10:01:46;;;;;;;;;;;;;;;5.33;94.32;99713.22;5100851;27;19938;-59
2023/02/28 10:04:17;;;;;;;;;;;;;;;5.35;95.43;99707.31;5102108;27;19943;-60
2023/02/28 10:06:50;;;;;;;;;;;;;;;4.77;100.00;99714.59;5101863;27;20388;-61
2023/02/28 10:09:20;;;;;;;;;;;;;;;4.97;99.68;99713.34;5096904;27;19938;-59
2023/02/28 10:11:46;;;;;;;;;;;;;;;5.16;99.08;99710.34;5100615;27;19938;-61
2023/02/28 10:14:14;;;;;;;;;;;;;;;4.95;99.76;99708.25;5084866;27;19948;-61
2023/02/28 10:16:46;;;;;;;;;;;;;;;5.08;97.82;99706.81;5103833;27;19943;-61
2023/02/28 10:19:20;;;;;;;;;;;;;;;5.16;98.22;99710.34;5103172;27;19954;-60
2023/02/28 10:22:05;;;;;;;;;;;;;;;5.04;99.56;99702.50;5084652;27;19973;-61
2023/02/28 10:24:41;;;;;;;;;;;;;;;5.18;97.16;99706.16;5063989;27;19954;-61
2023/02/28 10:27:16;;;;;;;;;;;;;;;5.25;97.68;99702.91;5101505;27;19939;-61
2023/02/28 10:29:46;;;;;;;;;;;;;;;4.87;98.77;99708.91;5099630;27;19945;-60
2023/02/28 10:32:16;;;;;;;;;;;;;;;4.87;98.82;99698.75;5102128;27;19942;-60
2023/02/28 10:34:42;;;;;;;;;;;;;;;4.50;100.00;99697.94;5102020;27;20028;-60
2023/02/28 10:37:07;;;;;;;;;;;;;;;4.26;100.00;99699.94;5101418;27;20036;-61
2023/02/28 10:39:35;;;;;;;;;;;;;;;4.06;100.00;99701.16;5100020;27;20327;-60
2023/02/28 10:42:01;;;;;;;;;;;;;;;4.26;100.00;99689.78;5100717;27;20024;-60
2023/02/28 10:44:27;;;;;;;;;;;;;;;4.66;100.00;99691.53;5100732;27;19942;-59
2023/02/28 10:46:53;;;;;;;;;;;;;;;4.83;100.00;99687.66;5070845;28;19949;-61
2023/02/28 10:49:28;;;;;;;;;;;;;;;4.78;100.00;99691.78;5106804;27;19934;-59
2023/02/28 10:51:56;;;;;;;;;;;;;;;4.71;100.00;99686.56;5103234;27;19991;-62
2023/02/28 10:54:35;;;;;;;;;;;;;;;4.44;100.00;99687.66;5101999;27;20057;-59
2023/02/28 10:57:08;;;;;;;;;;;;;;;4.52;100.00;99685.28;5098855;27;19938;-62
2023/02/28 10:59:35;;;;;;;;;;;;;;;4.65;100.00;99687.28;5100219;27;20404;-60
2023/02/28 11:02:00;;;;;;;;;;;;;;;4.55;100.00;99676.06;5099653;27;19966;-60
2023/02/28 11:04:39;;;;;;;;;;;;;;;4.52;100.00;99681.06;5100358;27;20047;-60
2023/02/28 11:07:16;;;;;;;;;;;;;;;4.72;100.00;99678.09;5083102;27;20337;-60
2023/02/28 11:09:44;;;;;;;;;;;;;;;4.84;100.00;99669.03;5101685;27;19943;-60
2023/02/28 11:12:22;;;;;;;;;;;;;;;4.94;98.59;99670.09;5101105;27;20417;-60
2023/02/28 11:14:50;;;;;;;;;;;;;;;4.89;99.95;99662.38;5102005;27;20037;-61
2023/02/28 11:17:24;;;;;;;;;;;;;;;4.79;98.38;99659.63;5099528;27;19945;-60
2023/02/28 11:19:57;;;;;;;;;;;;;;;4.73;98.02;99667.09;5100783;27;20018;-61
2023/02/28 11:22:28;;;;;;;;;;;;;;;4.75;97.91;99662.94;5100392;27;19946;-60
2023/02/28 11:24:56;;;;;;;;;;;;;;;4.96;98.64;99660.81;5102489;27;19961;-62
2023/02/28 11:27:25;;;;;;;;;;;;;;;5.08;100.00;99655.97;5100761;27;19946;-60
2023/02/28 11:29:50;;;;;;;;;;;;;;;5.07;94.64;99651.72;5099240;27;19942;-61
2023/02/28 11:32:20;;;;;;;;;;;;;;;4.98;94.50;99646.44;5098301;27;20363;-61
2023/02/28 11:34:47;;;;;;;;;;;;;;;4.94;94.99;99650.63;5099310;27;20402;-56
2023/02/28 11:37:15;;;;;;;;;;;;;;;5.03;95.96;99653.34;5100941;27;20002;-60
2023/02/28 11:39:41;;;;;;;;;;;;;;;5.02;94.26;99645.69;5098171;27;19953;-61
2023/02/28 11:42:26;;;;;;;;;;;;;;;5.23;97.43;99645.22;5097539;27;20403;-60
2023/02/28 11:44:54;;;;;;;;;;;;;;;5.57;93.16;99632.28;5097063;27;19985;-60
2023/02/28 11:47:32;;;;;;;;;;;;;;;5.63;91.87;99636.63;5100159;27;20276;-60
2023/02/28 11:50:04;;;;;;;;;;;;;;;5.56;90.37;99635.66;5098641;27;19950;-60
2023/02/28 11:52:38;;;;;;;;;;;;;;;5.69;86.14;99634.16;5100171;27;19964;-60
2023/02/28 11:55:04;;;;;;;;;;;;;;;5.84;84.23;99627.66;5101445;27;20268;-61
2023/02/28 11:57:50;;;;;;;;;;;;;;;5.88;82.62;99631.13;5103126;27;20604;-60
2023/02/28 12:00:34;;;;;;;;;;;;;;;5.47;82.14;99632.97;5087066;28;19966;-60
2023/02/28 12:03:03;;;;;;;;;;;;;;;5.53;84.68;99622.88;5066818;28;20210;-65
2023/02/28 12:05:28;;;;;;;;;;;;;;;5.47;84.46;99631.25;5082119;28;19963;-59
2023/02/28 12:08:15;;;;;;;;;;;;;;;5.52;87.02;99629.66;5084386;28;20505;-60
2023/02/28 12:10:43;;;;;;;;;;;;;;;5.67;86.67;99630.75;5086300;28;20365;-61
2023/02/28 12:13:23;;;;;;;;;;;;;;;5.55;88.75;99628.00;5086509;28;20031;-61
2023/02/28 12:15:55;;;;;;;;;;;;;;;5.37;86.70;99628.53;5086552;28;19991;-58
2023/02/28 12:18:36;;;;;;;;;;;;;;;5.38;87.69;99633.66;5084720;28;20280;-60
2023/02/28 12:21:20;;;;;;;;;;;;;;;5.44;86.46;99625.28;5064259;28;19951;-60
2023/02/28 12:23:45;;;;;;;;;;;;;;;5.49;85.66;99618.59;5081064;28;19944;-61
2023/02/28 12:26:20;;;;;;;;;;;;;;;5.72;86.64;99611.34;5064990;28;20007;-60
2023/02/28 12:28:49;;;;;;;;;;;;;;;5.77;87.57;99615.66;5080973;28;19945;-60
2023/02/28 12:31:23;;;;;;;;;;;;;;;5.90;86.01;99614.19;5065716;28;19943;-61
2023/02/28 12:33:53;;;;;;;;;;;;;;;5.97;87.79;99609.25;5085764;28;19946;-61
2023/02/28 12:36:21;;;;;;;;;;;;;;;6.08;83.64;99606.84;5086299;28;20003;-64
2023/02/28 12:38:50;;;;;;;;;;;;;;;5.81;83.48;99608.94;5083432;28;19976;-61
2023/02/28 12:41:28;;;;;;;;;;;;;;;5.68;84.46;99607.03;5084015;28;19940;-62
2023/02/28 12:44:06;;;;;;;;;;;;;;;5.49;88.25;99610.94;5083677;28;19938;-60
2023/02/28 12:46:51;;;;;;;;;;;;;;;5.45;87.90;99604.09;5081888;28;20005;-61
2023/02/28 12:49:32;;;;;;;;;;;;;;;5.50;87.83;99607.59;5084085;28;19933;-60